createdAt,value
2023-05-07T00:00:00.959Z,101792.50
2023-05-07T00:02:27.617Z,101795.97
2023-05-07T00:04:54.115Z,101789.53
2023-05-07T00:07:20.708Z,101791.31
2023-05-07T00:09:47.226Z,101785.66
2023-05-07T00:12:13.730Z,101784.38
2023-05-07T00:14:40.141Z,101784.22
2023-05-07T00:17:06.542Z,101801.22
2023-05-07T00:19:32.991Z,101788.78
2023-05-07T00:21:59.396Z,101792.34
2023-05-07T00:24:25.832Z,101789.63
2023-05-07T00:26:53.590Z,101789.31
2023-05-07T00:29:20.022Z,101791.81
2023-05-07T00:31:46.485Z,101790.38
2023-05-07T00:34:12.928Z,101792.84
2023-05-07T00:36:39.345Z,101790.31
2023-05-07T00:39:05.779Z,101788.09
2023-05-07T00:41:32.258Z,101792.84
2023-05-07T00:43:58.816Z,101791.41
2023-05-07T00:46:25.722Z,101792.25
2023-05-07T00:48:52.480Z,101788.97
2023-05-07T00:51:19.348Z,101790.31
2023-05-07T00:53:46.370Z,101787.06
2023-05-07T00:56:13.163Z,101787.16
2023-05-07T00:58:39.637Z,101788.59
2023-05-07T01:01:06.098Z,101785.41
2023-05-07T01:03:32.558Z,101786.19
2023-05-07T01:06:01.096Z,101791.16
2023-05-07T01:08:30.422Z,101791.84
2023-05-07T01:10:58.310Z,101780.69
2023-05-07T01:13:26.024Z,101781.34
2023-05-07T01:15:52.709Z,101776.78
2023-05-07T01:18:19.433Z,101779.16
2023-05-07T01:20:46.495Z,101780.59
2023-05-07T01:23:13.736Z,101777.53
2023-05-07T01:25:40.228Z,101781.75
2023-05-07T01:28:07.816Z,101780.22
2023-05-07T01:34:50.274Z,101778.78
2023-05-07T01:37:16.859Z,101777.09
2023-05-07T01:39:43.923Z,101787.69
2023-05-07T01:42:10.372Z,101783.91
2023-05-07T01:44:36.781Z,101790.38
2023-05-07T01:47:04.189Z,101787.25
2023-05-07T01:49:31.427Z,101792.00
2023-05-07T01:51:58.671Z,101789.06
2023-05-07T01:54:31.515Z,101787.16
2023-05-07T01:56:58.886Z,101788.78
2023-05-07T01:59:25.988Z,101791.25
2023-05-07T02:01:53.102Z,101789.13
2023-05-07T02:04:19.939Z,101795.03
2023-05-07T02:06:46.998Z,101793.28
2023-05-07T02:09:16.056Z,101800.16
2023-05-07T02:11:46.389Z,101803.34
2023-05-07T02:14:13.391Z,101800.56
2023-05-07T02:16:39.860Z,101799.78
2023-05-07T02:19:07.417Z,101808.25
2023-05-07T02:21:34.135Z,101800.47
2023-05-07T02:24:00.552Z,101802.16
2023-05-07T02:26:27.060Z,101800.97
2023-05-07T02:28:54.748Z,101804.09
2023-05-07T02:31:21.330Z,101807.63
2023-05-07T02:33:47.777Z,101805.78
2023-05-07T02:36:15.043Z,101806.81
2023-05-07T02:38:56.024Z,101808.47
2023-05-07T02:41:22.460Z,101813.13
2023-05-07T02:43:49.030Z,101813.00
2023-05-07T02:46:16.717Z,101819.09
2023-05-07T02:48:47.229Z,101818.47
2023-05-07T02:51:13.753Z,101831.94
2023-05-07T02:53:42.140Z,101826.34
2023-05-07T02:56:08.567Z,101828.03
2023-05-07T02:58:34.999Z,101821.78
2023-05-07T03:01:02.756Z,101829.03
2023-05-07T03:03:37.289Z,101830.38
2023-05-07T03:06:03.946Z,101831.50
2023-05-07T03:08:30.630Z,101827.69
2023-05-07T03:10:57.281Z,101826.84
2023-05-07T03:13:23.846Z,101826.84
2023-05-07T03:15:50.382Z,101821.50
2023-05-07T03:18:16.888Z,101823.13
2023-05-07T03:20:43.360Z,101825.97
2023-05-07T03:23:09.813Z,101829.22
2023-05-07T03:25:36.741Z,101834.94
2023-05-07T03:28:03.202Z,101826.31
2023-05-07T03:30:38.727Z,101826.75
2023-05-07T03:33:05.641Z,101827.66
2023-05-07T03:35:32.284Z,101828.50
2023-05-07T03:37:59.179Z,101832.75
2023-05-07T03:40:28.260Z,101831.06
2023-05-07T03:42:55.732Z,101837.31
2023-05-07T03:45:25.767Z,101842.06
2023-05-07T03:48:01.565Z,101847.03
2023-05-07T03:50:28.104Z,101849.25
2023-05-07T03:52:54.633Z,101843.69
2023-05-07T03:55:23.068Z,101846.22
2023-05-07T03:57:53.858Z,101846.81
2023-05-07T04:00:21.283Z,101845.88
2023-05-07T04:02:47.902Z,101847.16
2023-05-07T04:05:17.747Z,101840.38
2023-05-07T04:07:46.041Z,101845.13
2023-05-07T04:10:15.966Z,101848.66
2023-05-07T04:12:44.355Z,101850.09
2023-05-07T04:15:14.933Z,101849.00
2023-05-07T04:17:42.421Z,101855.94
2023-05-07T04:20:16.062Z,101855.09
2023-05-07T04:22:43.239Z,101857.38
2023-05-07T04:25:10.820Z,101863.56
2023-05-07T04:27:37.918Z,101868.84
2023-05-07T04:30:05.605Z,101867.31
2023-05-07T04:32:38.351Z,101870.94
2023-05-07T04:35:05.594Z,101868.16
2023-05-07T04:37:33.685Z,101865.13
2023-05-07T04:40:01.369Z,101874.56
2023-05-07T04:42:28.005Z,101867.81
2023-05-07T04:44:55.764Z,101876.19
2023-05-07T04:47:23.662Z,101877.53
2023-05-07T04:49:51.157Z,101881.91
2023-05-07T04:52:17.801Z,101886.16
2023-05-07T04:54:44.507Z,101891.72
2023-05-07T04:57:11.921Z,101891.59
2023-05-07T04:59:39.396Z,101896.59
2023-05-07T05:02:06.436Z,101896.59
2023-05-07T05:04:33.014Z,101888.81
2023-05-07T05:06:59.570Z,101890.50
2023-05-07T05:09:26.077Z,101901.56
2023-05-07T05:11:52.525Z,101901.66
2023-05-07T05:14:19.015Z,101902.50
2023-05-07T05:16:45.592Z,101906.41
2023-05-07T05:19:12.924Z,101905.69
2023-05-07T05:21:40.363Z,101902.00
2023-05-07T05:24:09.449Z,101905.91
2023-05-07T05:26:35.976Z,101901.31
2023-05-07T05:29:03.181Z,101911.03
2023-05-07T05:31:31.606Z,101906.19
2023-05-07T05:33:58.042Z,101912.84
2023-05-07T05:36:25.577Z,101901.56
2023-05-07T05:38:55.020Z,101902.63
2023-05-07T05:41:22.626Z,101911.59
2023-05-07T05:43:49.658Z,101907.97
2023-05-07T05:46:16.638Z,101910.66
2023-05-07T05:48:43.381Z,101909.31
2023-05-07T05:51:11.412Z,101905.94
2023-05-07T05:53:38.007Z,101913.91
2023-05-07T05:56:06.223Z,101912.22
2023-05-07T05:58:34.244Z,101918.97
2023-05-07T06:01:04.863Z,101924.06
2023-05-07T06:03:31.420Z,101930.81
2023-05-07T06:06:01.243Z,101930.75
2023-05-07T06:08:31.201Z,101931.00
2023-05-07T06:10:57.857Z,101930.94
2023-05-07T06:13:24.605Z,101938.59
2023-05-07T06:15:51.625Z,101938.59
2023-05-07T06:18:18.134Z,101931.88
2023-05-07T06:20:44.562Z,101935.19
2023-05-07T06:23:18.343Z,101937.56
2023-05-07T06:25:50.892Z,101945.13
2023-05-07T06:28:18.912Z,101941.38
2023-05-07T06:30:46.043Z,101940.16
2023-05-07T06:33:12.891Z,101936.06
2023-05-07T06:35:39.387Z,101940.22
2023-05-07T06:38:06.630Z,101949.31
2023-05-07T06:40:33.123Z,101948.63
2023-05-07T06:43:00.517Z,101955.50
2023-05-07T06:45:39.153Z,101944.47
2023-05-07T06:48:07.716Z,101952.38
2023-05-07T06:50:43.594Z,101941.00
2023-05-07T06:53:11.178Z,101942.69
2023-05-07T06:55:39.183Z,101945.44
2023-05-07T06:58:06.929Z,101955.06
2023-05-07T07:00:33.561Z,101946.34
2023-05-07T07:03:01.429Z,101945.72
2023-05-07T07:05:28.673Z,101951.16
2023-05-07T07:07:56.099Z,101944.28
2023-05-07T07:10:23.656Z,101950.91
2023-05-07T07:12:51.787Z,101952.38
2023-05-07T07:15:18.329Z,101949.56
2023-05-07T07:17:45.602Z,101958.63
2023-05-07T07:20:12.524Z,101962.78
2023-05-07T07:22:40.111Z,101962.78
2023-05-07T07:25:07.250Z,101961.50
2023-05-07T07:27:33.898Z,101962.53
2023-05-07T07:30:01.021Z,101960.47
2023-05-07T07:32:30.603Z,101959.63
2023-05-07T07:34:57.170Z,101967.16
2023-05-07T07:37:23.657Z,101962.47
2023-05-07T07:39:50.222Z,101967.28
2023-05-07T07:42:16.793Z,101958.13
2023-05-07T07:44:43.233Z,101966.72
2023-05-07T07:47:12.085Z,101967.25
2023-05-07T07:49:38.818Z,101964.50
2023-05-07T07:52:06.904Z,101967.81
2023-05-07T07:54:35.950Z,101973.91
2023-05-07T07:57:02.853Z,101963.97
2023-05-07T07:59:31.977Z,101962.22
2023-05-07T08:01:58.552Z,101967.06
2023-05-07T08:04:27.422Z,101966.06
2023-05-07T08:06:55.739Z,101962.09
2023-05-07T08:09:22.220Z,101963.16
2023-05-07T08:11:49.718Z,101971.78
2023-05-07T08:14:16.812Z,101961.50
2023-05-07T08:16:46.233Z,101965.06
2023-05-07T08:19:13.216Z,101962.50
2023-05-07T08:21:41.130Z,101963.84
2023-05-07T08:24:09.530Z,101969.25
2023-05-07T08:26:36.926Z,101960.97
2023-05-07T08:29:03.770Z,101967.38
2023-05-07T08:31:30.269Z,101965.16
2023-05-07T08:33:57.843Z,101966.25
2023-05-07T08:36:24.264Z,101963.38
2023-05-07T08:38:50.955Z,101968.94
2023-05-07T08:41:17.578Z,101967.00
2023-05-07T08:43:50.393Z,101965.84
2023-05-07T08:46:21.643Z,101965.06
2023-05-07T08:48:50.832Z,101960.25
2023-05-07T08:51:19.644Z,101967.72
2023-05-07T08:53:49.271Z,101954.31
2023-05-07T08:56:22.415Z,101962.22
2023-05-07T08:58:50.671Z,101960.50
2023-05-07T09:01:18.282Z,101954.41
2023-05-07T09:03:48.873Z,101961.44
2023-05-07T09:06:16.416Z,101961.22
2023-05-07T09:08:49.975Z,101965.47
2023-05-07T09:11:17.174Z,101958.47
2023-05-07T09:13:43.681Z,101965.53
2023-05-07T09:16:14.607Z,101955.13
2023-05-07T09:18:44.571Z,101958.47
2023-05-07T09:21:15.607Z,101962.09
2023-05-07T09:23:42.713Z,101959.56
2023-05-07T09:26:12.671Z,101954.25
2023-05-07T09:28:45.173Z,101962.44
2023-05-07T09:31:13.579Z,101961.31
2023-05-07T09:33:40.915Z,101962.72
2023-05-07T09:36:10.899Z,101967.22
2023-05-07T09:38:39.635Z,101968.31
2023-05-07T09:41:08.545Z,101971.75
2023-05-07T09:43:41.794Z,101970.34
2023-05-07T09:46:13.927Z,101969.72
2023-05-07T09:48:45.356Z,101967.16
2023-05-07T09:51:18.464Z,101966.25
2023-05-07T09:53:47.168Z,101970.53
2023-05-07T09:56:16.262Z,101963.56
2023-05-07T09:58:44.432Z,101974.53
2023-05-07T10:01:13.106Z,101973.13
2023-05-07T10:03:42.741Z,101981.25
2023-05-07T10:06:11.538Z,101977.03
2023-05-07T10:08:38.625Z,101970.03
2023-05-07T10:11:07.396Z,101979.34
2023-05-07T10:13:36.845Z,101972.31
2023-05-07T10:16:06.856Z,101977.38
2023-05-07T10:18:41.913Z,101973.94
2023-05-07T10:21:21.431Z,101979.84
2023-05-07T10:23:54.217Z,101976.78
2023-05-07T10:26:23.174Z,101979.03
2023-05-07T10:28:54.574Z,101988.91
2023-05-07T10:31:44.067Z,101985.81
2023-05-07T10:34:14.836Z,101980.97
2023-05-07T10:36:41.684Z,101984.38
2023-05-07T10:39:09.309Z,101985.53
2023-05-07T10:41:36.267Z,101994.81
2023-05-07T10:44:03.159Z,101990.06
2023-05-07T10:46:36.316Z,101976.81
2023-05-07T10:49:09.445Z,101984.69
2023-05-07T10:51:41.626Z,101989.75
2023-05-07T10:54:16.529Z,101984.09
2023-05-07T10:56:53.120Z,101991.44
2023-05-07T10:59:35.673Z,101986.66
2023-05-07T11:02:12.102Z,101975.97
2023-05-07T11:04:45.719Z,101982.16
2023-05-07T11:07:28.217Z,101976.53
2023-05-07T11:10:05.068Z,101983.56
2023-05-07T11:12:40.056Z,101977.66
2023-05-07T11:15:16.813Z,101975.66
2023-05-07T11:17:57.487Z,101977.63
2023-05-07T11:20:55.812Z,101986.94
2023-05-07T11:23:36.021Z,101972.84
2023-05-07T11:26:12.460Z,101972.56
2023-05-07T11:28:41.880Z,101968.88
2023-05-07T11:31:09.510Z,101964.66
2023-05-07T11:33:37.364Z,101966.91
2023-05-07T11:36:06.575Z,101974.13
2023-05-07T11:38:38.695Z,101963.50
2023-05-07T11:41:06.211Z,101969.03
2023-05-07T11:43:34.020Z,101957.88
2023-05-07T11:46:11.470Z,101959.25
2023-05-07T11:48:39.071Z,101959.19
2023-05-07T11:51:06.841Z,101969.75
2023-05-07T11:53:39.559Z,101955.31
2023-05-07T11:56:13.792Z,101958.97
2023-05-07T11:58:41.269Z,101958.28
2023-05-07T12:01:12.014Z,101959.34
2023-05-07T12:03:43.514Z,101952.28
2023-05-07T12:06:12.356Z,101954.72
2023-05-07T12:08:40.390Z,101956.53
2023-05-07T12:11:17.113Z,101954.13
2023-05-07T12:13:43.574Z,101965.53
2023-05-07T12:16:10.590Z,101964.38
2023-05-07T12:18:38.091Z,101958.16
2023-05-07T12:21:06.148Z,101965.72
2023-05-07T12:23:33.027Z,101962.00
2023-05-07T12:26:00.555Z,101958.22
2023-05-07T12:28:27.058Z,101960.69
2023-05-07T12:30:53.770Z,101957.84
2023-05-07T12:33:25.586Z,101957.00
2023-05-07T12:35:53.877Z,101958.19
2023-05-07T12:38:20.406Z,101954.78
2023-05-07T12:40:54.682Z,101950.59
2023-05-07T12:43:23.003Z,101963.28
2023-05-07T12:45:51.319Z,101960.28
2023-05-07T12:48:18.266Z,101971.56
2023-05-07T12:50:44.774Z,101964.50
2023-05-07T12:53:13.156Z,101959.25
2023-05-07T12:55:44.787Z,101953.03
2023-05-07T12:58:21.683Z,101953.97
2023-05-07T13:00:49.925Z,101959.47
2023-05-07T13:03:24.388Z,101959.47
2023-05-07T13:05:51.502Z,101962.88
2023-05-07T13:08:26.066Z,101963.91
2023-05-07T13:10:53.366Z,101963.56
2023-05-07T13:13:21.230Z,101969.84
2023-05-07T13:15:48.495Z,101973.94
2023-05-07T13:18:15.373Z,101966.41
2023-05-07T13:20:41.839Z,101959.06
2023-05-07T13:23:08.386Z,101967.00
2023-05-07T13:25:35.961Z,101969.34
2023-05-07T13:28:10.759Z,101964.91
2023-05-07T13:30:38.071Z,101957.78
2023-05-07T13:33:04.686Z,101963.88
2023-05-07T13:35:31.213Z,101956.47
2023-05-07T13:37:57.662Z,101958.47
2023-05-07T13:40:24.697Z,101950.34
2023-05-07T13:42:51.846Z,101954.00
2023-05-07T13:45:21.578Z,101950.16
2023-05-07T13:47:49.964Z,101953.38
2023-05-07T13:50:17.036Z,101949.59
2023-05-07T13:52:51.243Z,101957.75
2023-05-07T13:55:21.846Z,101952.34
2023-05-07T13:57:48.295Z,101959.31
2023-05-07T14:00:16.388Z,101955.56
2023-05-07T14:02:42.979Z,101955.78
2023-05-07T14:05:10.791Z,101961.16
2023-05-07T14:07:37.412Z,101948.94
2023-05-07T14:10:04.438Z,101952.06
2023-05-07T14:12:31.027Z,101948.88
2023-05-07T14:14:57.522Z,101941.63
2023-05-07T14:17:26.353Z,101943.16
2023-05-07T14:19:55.260Z,101933.22
2023-05-07T14:22:23.375Z,101947.00
2023-05-07T14:25:03.292Z,101949.06
2023-05-07T14:27:32.865Z,101942.28
2023-05-07T14:29:59.326Z,101939.66
2023-05-07T14:32:25.798Z,101945.53
2023-05-07T14:34:52.278Z,101934.28
2023-05-07T14:37:20.775Z,101937.03
2023-05-07T14:39:49.945Z,101942.28
2023-05-07T14:42:17.136Z,101940.22
2023-05-07T14:44:43.958Z,101932.56
2023-05-07T14:47:10.652Z,101943.50
2023-05-07T14:49:37.361Z,101950.25
2023-05-07T14:52:05.285Z,101943.50
2023-05-07T14:54:31.720Z,101950.94
2023-05-07T14:56:58.176Z,101945.09
2023-05-07T14:59:26.048Z,101941.13
2023-05-07T15:01:52.614Z,101943.56
2023-05-07T15:04:19.694Z,101936.91
2023-05-07T15:06:47.216Z,101952.81
2023-05-07T15:09:13.673Z,101955.09
2023-05-07T15:11:40.111Z,101953.03
2023-05-07T15:14:07.023Z,101958.75
2023-05-07T15:16:33.898Z,101957.97
2023-05-07T15:19:00.326Z,101952.72
2023-05-07T15:21:27.760Z,101956.75
2023-05-07T15:23:54.245Z,101959.47
2023-05-07T15:26:21.393Z,101959.81
2023-05-07T15:28:47.836Z,101946.44
2023-05-07T15:31:14.296Z,101950.75
2023-05-07T15:33:41.765Z,101954.38
2023-05-07T15:36:08.289Z,101958.28
2023-05-07T15:38:34.968Z,101952.72
2023-05-07T15:41:01.404Z,101949.25
2023-05-07T15:43:27.838Z,101961.25
2023-05-07T15:45:54.476Z,101961.94
2023-05-07T15:48:20.983Z,101959.75
2023-05-07T15:50:47.420Z,101963.50
2023-05-07T15:53:13.880Z,101961.94
2023-05-07T15:55:42.982Z,101958.38
2023-05-07T15:58:09.455Z,101968.91
2023-05-07T16:00:36.273Z,101955.91
2023-05-07T16:03:02.967Z,101957.28
2023-05-07T16:05:29.537Z,101955.41
2023-05-07T16:07:57.193Z,101957.94
2023-05-07T16:10:23.619Z,101949.06
2023-05-07T16:12:50.096Z,101959.28
2023-05-07T16:15:16.545Z,101959.50
2023-05-07T16:17:46.389Z,101964.13
2023-05-07T16:20:13.331Z,101965.50
2023-05-07T16:22:39.768Z,101961.31
2023-05-07T16:25:06.764Z,101962.13
2023-05-07T16:27:33.181Z,101968.41
2023-05-07T16:29:59.648Z,101962.03
2023-05-07T16:32:28.321Z,101970.88
2023-05-07T16:34:54.750Z,101969.25
2023-05-07T16:37:21.468Z,101964.66
2023-05-07T16:39:47.848Z,101966.34
2023-05-07T16:42:14.291Z,101969.53
2023-05-07T16:44:40.679Z,101960.50
2023-05-07T16:47:07.128Z,101969.13
2023-05-07T16:49:33.535Z,101969.41
2023-05-07T16:51:59.978Z,101973.69
2023-05-07T16:54:26.427Z,101972.56
2023-05-07T16:56:52.870Z,101976.28
2023-05-07T16:59:19.283Z,101976.00
2023-05-07T17:01:45.782Z,101987.06
2023-05-07T17:04:12.367Z,101992.19
2023-05-07T17:06:38.865Z,101979.75
2023-05-07T17:09:05.335Z,101987.66
2023-05-07T17:11:33.929Z,101983.72
2023-05-07T17:14:00.489Z,101981.75
2023-05-07T17:16:27.001Z,101988.81
2023-05-07T17:18:53.470Z,101995.34
2023-05-07T17:21:19.889Z,101991.13
2023-05-07T17:23:46.351Z,101991.97
2023-05-07T17:26:13.865Z,101993.38
2023-05-07T17:28:40.992Z,101989.44
2023-05-07T17:31:07.538Z,101998.16
2023-05-07T17:33:34.005Z,102002.97
2023-05-07T17:36:02.995Z,102002.16
2023-05-07T17:38:30.422Z,102014.28
2023-05-07T17:40:57.996Z,102022.44
2023-05-07T17:43:24.580Z,102023.28
2023-05-07T17:45:51.283Z,102027.78
2023-05-07T17:48:17.920Z,102034.00
2023-05-07T17:50:47.294Z,102027.81
2023-05-07T17:53:13.747Z,102032.59
2023-05-07T17:55:44.193Z,102032.56
2023-05-07T17:58:12.032Z,102030.34
2023-05-07T18:00:38.616Z,102035.69
2023-05-07T18:03:05.231Z,102030.06
2023-05-07T18:05:31.799Z,102026.38
2023-05-07T18:07:58.283Z,102028.63
2023-05-07T18:10:25.084Z,102029.44
2023-05-07T18:12:51.658Z,102039.00
2023-05-07T18:15:18.153Z,102040.72
2023-05-07T18:17:44.633Z,102042.13
2023-05-07T18:20:11.736Z,102048.56
2023-05-07T18:22:38.806Z,102053.38
2023-05-07T18:25:05.987Z,102047.16
2023-05-07T18:27:32.421Z,102049.09
2023-05-07T18:29:58.878Z,102052.38
2023-05-07T18:32:25.595Z,102063.94
2023-05-07T18:34:52.207Z,102052.66
2023-05-07T18:37:18.632Z,102062.78
2023-05-07T18:39:46.035Z,102067.22
2023-05-07T18:42:13.028Z,102067.50
2023-05-07T18:44:39.521Z,102068.84
2023-05-07T18:47:06.301Z,102075.59
2023-05-07T18:49:33.888Z,102069.06
2023-05-07T18:52:01.008Z,102072.44
2023-05-07T18:54:27.868Z,102080.31
2023-05-07T18:56:54.446Z,102077.53
2023-05-07T18:59:21.145Z,102078.38
2023-05-07T19:01:47.807Z,102083.97
2023-05-07T19:04:14.491Z,102083.19
2023-05-07T19:06:40.982Z,102090.38
2023-05-07T19:09:07.394Z,102086.94
2023-05-07T19:11:33.843Z,102097.09
2023-05-07T19:14:01.734Z,102102.63
2023-05-07T19:16:30.630Z,102100.69
2023-05-07T19:18:57.085Z,102097.59
2023-05-07T19:21:23.610Z,102103.44
2023-05-07T19:23:53.285Z,102095.63
2023-05-07T19:26:22.647Z,102101.06
2023-05-07T19:28:56.965Z,102106.91
2023-05-07T19:31:36.838Z,102116.22
2023-05-07T19:34:03.424Z,102120.19
2023-05-07T19:36:29.912Z,102121.59
2023-05-07T19:38:56.399Z,102121.78
2023-05-07T19:41:23.140Z,102115.03
2023-05-07T19:43:49.572Z,102118.59
2023-05-07T19:46:19.069Z,102125.59
2023-05-07T19:48:45.754Z,102119.84
2023-05-07T19:51:12.260Z,102123.63
2023-05-07T19:53:38.753Z,102124.09
2023-05-07T19:56:07.978Z,102134.19
2023-05-07T19:58:35.279Z,102144.06
2023-05-07T20:01:02.370Z,102149.28
2023-05-07T20:03:29.534Z,102149.56
2023-05-07T20:05:56.397Z,102153.84
2023-05-07T20:08:23.260Z,102146.00
2023-05-07T20:10:50.736Z,102146.41
2023-05-07T20:13:18.047Z,102159.66
2023-05-07T20:15:44.622Z,102165.88
2023-05-07T20:18:11.182Z,102160.09
2023-05-07T20:20:37.638Z,102168.41
2023-05-07T20:23:04.067Z,102171.44
2023-05-07T20:25:30.616Z,102179.09
2023-05-07T20:27:57.270Z,102176.94
2023-05-07T20:30:24.586Z,102179.34
2023-05-07T20:32:51.206Z,102189.81
2023-05-07T20:35:17.868Z,102179.63
2023-05-07T20:37:44.424Z,102174.34
2023-05-07T20:40:11.346Z,102178.72
2023-05-07T20:42:38.201Z,102176.06
2023-05-07T20:45:04.898Z,102181.78
2023-05-07T20:47:33.649Z,102182.78
2023-05-07T20:50:00.189Z,102181.44
2023-05-07T20:52:26.672Z,102184.22
2023-05-07T20:54:53.370Z,102190.97
2023-05-07T20:57:19.896Z,102188.59
2023-05-07T20:59:46.365Z,102188.16
2023-05-07T21:02:12.858Z,102188.59
2023-05-07T21:04:39.321Z,102191.91
2023-05-07T21:07:07.010Z,102197.22
2023-05-07T21:09:33.603Z,102190.78
2023-05-07T21:12:00.072Z,102193.59
2023-05-07T21:14:26.529Z,102192.00
2023-05-07T21:16:52.985Z,102196.38
2023-05-07T21:19:19.407Z,102191.69
2023-05-07T21:21:45.823Z,102207.38
2023-05-07T21:24:12.349Z,102202.28
2023-05-07T21:26:38.841Z,102200.09
2023-05-07T21:29:05.434Z,102200.28
2023-05-07T21:31:32.002Z,102209.84
2023-05-07T21:33:58.478Z,102211.81
2023-05-07T21:36:24.927Z,102209.81
2023-05-07T21:38:51.367Z,102212.38
2023-05-07T21:41:20.320Z,102200.91
2023-05-07T21:43:46.764Z,102213.13
2023-05-07T21:46:13.461Z,102215.31
2023-05-07T21:48:40.031Z,102213.25
2023-05-07T21:51:07.764Z,102218.78
2023-05-07T21:53:35.315Z,102211.63
2023-05-07T21:56:05.087Z,102215.50
2023-05-07T21:58:31.943Z,102226.22
2023-05-07T22:00:59.566Z,102228.16
2023-05-07T22:03:26.099Z,102229.50
2023-05-07T22:05:52.830Z,102228.19
2023-05-07T22:08:19.303Z,102220.25
2023-05-07T22:10:46.235Z,102230.16
2023-05-07T22:13:12.778Z,102231.63
2023-05-07T22:15:49.522Z,102241.56
2023-05-07T22:18:23.538Z,102240.00
2023-05-07T22:20:53.134Z,102231.16
2023-05-07T22:23:19.643Z,102232.97
2023-05-07T22:25:46.305Z,102225.56
2023-05-07T22:28:12.829Z,102230.56
2023-05-07T22:30:39.316Z,102229.81
2023-05-07T22:33:05.775Z,102237.00
2023-05-07T22:35:32.238Z,102242.47
2023-05-07T22:37:58.697Z,102242.13
2023-05-07T22:40:25.156Z,102238.13
2023-05-07T22:42:51.600Z,102240.69
2023-05-07T22:45:18.151Z,102233.59
2023-05-07T22:47:44.624Z,102248.06
2023-05-07T22:50:12.342Z,102243.94
2023-05-07T22:52:38.931Z,102240.66
2023-05-07T22:55:05.751Z,102241.88
2023-05-07T22:57:32.207Z,102238.47
2023-05-07T22:59:58.736Z,102245.75
2023-05-07T23:02:29.054Z,102241.16
2023-05-07T23:04:58.736Z,102236.53
2023-05-07T23:07:25.161Z,102239.91
2023-05-07T23:09:51.672Z,102234.34
2023-05-07T23:12:18.084Z,102230.56
2023-05-07T23:14:44.526Z,102238.22
2023-05-07T23:17:10.997Z,102242.09
2023-05-07T23:19:37.505Z,102230.81
2023-05-07T23:22:04.039Z,102236.50
2023-05-07T23:24:30.463Z,102235.31
2023-05-07T23:26:56.865Z,102229.22
2023-05-07T23:29:23.351Z,102234.19
2023-05-07T23:31:49.765Z,102237.47
2023-05-07T23:34:18.431Z,102232.25
2023-05-07T23:36:44.830Z,102237.47
2023-05-07T23:39:11.447Z,102234.91
2023-05-07T23:41:37.855Z,102233.56
2023-05-07T23:44:04.286Z,102228.69
2023-05-07T23:46:30.743Z,102227.13
2023-05-07T23:48:57.189Z,102233.69
2023-05-07T23:51:23.636Z,102226.16
2023-05-07T23:53:50.322Z,102223.84
2023-05-07T23:56:16.807Z,102222.13
2023-05-07T23:58:43.222Z,102227.63
